Terminal Aerodrome Forecast
Issued by NWS Cleveland, OH

Current Version | Previous Version | Text Only | Print | Product List | Glossary On
Versions: 1 2 3 4 5 6 7 8 9 10 11 12 13 14 15 16 17 18 19 20 21 22 23 24 25 26 27 28 29 30
000
FTUS41 KCLE 301100
TAFCLE
TAF
KCLE 301129Z 3012/3118 33015G25KT 5SM -SHSN BLSN SCT015 OVC025
      TEMPO 3012/3014 2SM -SHSN BLSN OVC015
     FM301600 32014G22KT P6SM BKN025
     FM310100 28006KT P6SM SCT025 BKN035
     FM310200 VRB03KT P6SM SCT150 BKN200=

USA.gov is the U.S. government's official web portal to all federal, state and local government web resources and services.